createdAt,value
2022-12-28T00:02:17.884Z,10.55
2022-12-28T00:04:48.754Z,14.13
2022-12-28T00:07:16.191Z,10.75
2022-12-28T00:09:44.165Z,15.40
2022-12-28T00:12:12.154Z,16.70
2022-12-28T00:14:39.581Z,22.02
2022-12-28T00:17:13.320Z,19.30
2022-12-28T00:19:40.885Z,15.25
2022-12-28T00:22:08.214Z,15.45
2022-12-28T00:24:35.545Z,133.43
2022-12-28T00:27:02.944Z,40.10
2022-12-28T00:29:30.519Z,18.42
2022-12-28T00:31:57.903Z,12.40
2022-12-28T00:34:25.389Z,11.32
2022-12-28T00:37:09.901Z,10.52
2022-12-28T00:39:43.524Z,10.70
2022-12-28T00:42:16.225Z,11.98
2022-12-28T00:44:44.076Z,12.70
2022-12-28T00:47:11.355Z,11.18
2022-12-28T00:49:39.867Z,12.05
2022-12-28T00:52:07.341Z,11.75
2022-12-28T00:54:34.971Z,9.57
2022-12-28T00:57:03.329Z,8.48
2022-12-28T00:59:30.609Z,10.63
2022-12-28T01:02:00.842Z,13.43
2022-12-28T01:04:28.369Z,12.07
2022-12-28T01:06:55.696Z,9.93
2022-12-28T01:09:23.582Z,9.27
2022-12-28T01:11:50.933Z,11.15
2022-12-28T01:14:19.596Z,10.13
2022-12-28T01:16:47.235Z,9.13
2022-12-28T01:19:20.461Z,9.63
2022-12-28T01:24:16.875Z,10.95
2022-12-28T01:26:44.380Z,10.07
2022-12-28T01:29:14.883Z,10.70
2022-12-28T01:31:42.331Z,10.43
2022-12-28T01:34:09.815Z,10.13
2022-12-28T01:36:37.261Z,8.55
2022-12-28T01:39:06.887Z,8.82
2022-12-28T01:41:39.585Z,11.32
2022-12-28T01:44:07.533Z,7.45
2022-12-28T01:46:48.349Z,9.05
2022-12-28T01:49:27.169Z,8.15
2022-12-28T01:52:02.118Z,9.98
2022-12-28T01:54:34.332Z,8.40
2022-12-28T01:57:03.957Z,9.18
2022-12-28T01:59:37.104Z,8.90
2022-12-28T02:02:04.847Z,11.60
2022-12-28T02:04:32.400Z,10.43
2022-12-28T02:06:59.840Z,8.18
2022-12-28T02:09:33.551Z,8.18
2022-12-28T02:12:01.491Z,7.78
2022-12-28T02:14:29.604Z,8.55
2022-12-28T02:16:57.245Z,9.32
2022-12-28T02:19:41.817Z,8.07
2022-12-28T02:22:15.393Z,8.38
2022-12-28T02:25:30.683Z,8.45
2022-12-28T02:28:37.261Z,9.15
2022-12-28T02:31:13.535Z,7.82
2022-12-28T02:34:06.199Z,12.07
2022-12-28T02:36:43.361Z,8.70
2022-12-28T02:39:19.622Z,7.85
2022-12-28T02:41:49.184Z,9.32
2022-12-28T02:44:36.957Z,10.00
2022-12-28T02:47:23.828Z,7.85
2022-12-28T02:50:09.255Z,8.77
2022-12-28T02:53:08.572Z,9.38
2022-12-28T02:56:09.360Z,9.60
2022-12-28T02:59:16.680Z,8.15
2022-12-28T03:01:51.281Z,9.73
2022-12-28T03:04:32.923Z,8.07
2022-12-28T03:07:41.599Z,8.90
2022-12-28T03:10:19.090Z,8.88
2022-12-28T03:12:54.080Z,10.05
2022-12-28T03:15:35.358Z,8.40
2022-12-28T03:18:34.403Z,8.93
2022-12-28T03:21:26.815Z,9.25
2022-12-28T03:24:15.215Z,8.85
2022-12-28T03:27:06.995Z,8.82
2022-12-28T03:30:04.830Z,9.38
2022-12-28T03:32:33.884Z,10.23
2022-12-28T03:35:01.321Z,8.35
2022-12-28T03:37:37.148Z,9.55
2022-12-28T03:40:45.904Z,9.00
2022-12-28T03:43:43.047Z,9.30
2022-12-28T03:46:29.685Z,9.48
2022-12-28T03:48:59.785Z,10.57
2022-12-28T03:51:34.846Z,9.07
2022-12-28T03:54:16.745Z,10.18
2022-12-28T03:56:49.347Z,8.40
2022-12-28T03:59:18.570Z,9.30
2022-12-28T04:01:50.406Z,9.95
2022-12-28T04:04:19.068Z,10.02
2022-12-28T04:06:47.996Z,10.20
2022-12-28T04:09:15.410Z,10.02
2022-12-28T04:11:42.800Z,12.88
2022-12-28T04:14:18.075Z,11.32
2022-12-28T04:16:48.538Z,9.45
2022-12-28T04:19:17.654Z,9.85
2022-12-28T04:21:46.864Z,9.77
2022-12-28T04:24:14.906Z,10.73
2022-12-28T04:26:42.228Z,9.52
2022-12-28T04:29:11.158Z,10.43
2022-12-28T04:31:44.336Z,10.82
2022-12-28T04:34:14.526Z,11.65
2022-12-28T04:36:48.164Z,10.05
2022-12-28T04:39:19.113Z,10.90
2022-12-28T04:41:46.560Z,12.82
2022-12-28T04:44:13.821Z,10.38
2022-12-28T04:46:41.235Z,12.07
2022-12-28T04:49:08.690Z,11.65
2022-12-28T04:51:36.193Z,14.80
2022-12-28T04:54:03.905Z,13.43
2022-12-28T04:56:31.834Z,11.85
2022-12-28T04:59:00.934Z,17.15
2022-12-28T05:01:28.781Z,12.82
2022-12-28T05:03:59.442Z,11.82
2022-12-28T05:06:28.326Z,12.60
2022-12-28T05:08:57.528Z,13.77
2022-12-28T05:11:28.052Z,16.85
2022-12-28T05:13:56.425Z,12.48
2022-12-28T05:16:25.970Z,12.13
2022-12-28T05:18:54.883Z,11.68
2022-12-28T05:21:25.112Z,14.40
2022-12-28T05:23:53.086Z,11.45
2022-12-28T05:26:23.285Z,16.58
2022-12-28T05:28:51.119Z,13.23
2022-12-28T05:31:21.103Z,13.35
2022-12-28T05:33:48.929Z,10.60
2022-12-28T05:36:24.127Z,12.68
2022-12-28T05:38:52.789Z,12.70
2022-12-28T05:41:28.380Z,15.35
2022-12-28T05:43:57.435Z,13.35
2022-12-28T05:46:33.576Z,13.23
2022-12-28T05:49:03.807Z,14.15
2022-12-28T05:51:32.956Z,13.18
2022-12-28T05:54:04.598Z,11.02
2022-12-28T05:56:33.523Z,12.13
2022-12-28T05:59:03.164Z,11.75
2022-12-28T06:01:33.468Z,14.23
2022-12-28T06:04:03.557Z,12.90
2022-12-28T06:06:33.149Z,13.20
2022-12-28T06:09:01.983Z,13.77
2022-12-28T06:11:32.361Z,12.55
2022-12-28T06:14:00.849Z,13.32
2022-12-28T06:16:31.086Z,13.73
2022-12-28T06:18:58.950Z,21.17
2022-12-28T06:21:31.811Z,22.55
2022-12-28T06:24:00.349Z,20.38
2022-12-28T06:26:30.190Z,13.52
2022-12-28T06:28:58.469Z,13.05
2022-12-28T06:31:27.987Z,28.73
2022-12-28T06:33:59.484Z,20.80
2022-12-28T06:36:34.003Z,17.50
2022-12-28T06:39:03.337Z,14.57
2022-12-28T06:41:30.934Z,13.63
2022-12-28T06:43:58.920Z,14.07
2022-12-28T06:46:29.048Z,13.73
2022-12-28T06:48:59.640Z,13.75
2022-12-28T06:51:29.666Z,12.45
2022-12-28T06:53:58.240Z,13.85
2022-12-28T06:56:33.418Z,20.30
2022-12-28T06:59:03.859Z,15.13
2022-12-28T07:01:37.262Z,13.63
2022-12-28T07:04:06.822Z,15.10
2022-12-28T07:06:46.614Z,13.43
2022-12-28T07:09:18.810Z,13.90
2022-12-28T07:11:49.952Z,14.75
2022-12-28T07:14:20.109Z,18.63
2022-12-28T07:16:48.414Z,14.93
2022-12-28T07:19:15.857Z,13.02
2022-12-28T07:21:43.275Z,17.23
2022-12-28T07:24:10.968Z,14.80
2022-12-28T07:26:38.725Z,17.63
2022-12-28T07:29:07.735Z,15.75
2022-12-28T07:31:44.128Z,15.20
2022-12-28T07:34:13.369Z,17.98
2022-12-28T07:36:40.886Z,14.20
2022-12-28T07:39:08.535Z,15.95
2022-12-28T07:41:38.283Z,17.48
2022-12-28T07:44:06.963Z,17.20
2022-12-28T07:46:36.531Z,16.10
2022-12-28T07:49:04.053Z,15.93
2022-12-28T07:51:35.211Z,20.23
2022-12-28T07:54:03.193Z,15.45
2022-12-28T07:59:08.266Z,21.38
2022-12-28T08:01:50.699Z,18.80
2022-12-28T08:04:27.634Z,17.83
2022-12-28T08:07:00.140Z,17.13
2022-12-28T08:09:27.606Z,23.45
2022-12-28T08:11:55.012Z,22.40
2022-12-28T08:14:22.476Z,20.40
2022-12-28T08:16:49.810Z,22.30
2022-12-28T08:19:17.240Z,21.63
2022-12-28T08:21:45.719Z,20.63
2022-12-28T08:24:19.352Z,18.05
2022-12-28T08:26:47.816Z,22.38
2022-12-28T08:29:19.554Z,17.65
2022-12-28T08:31:47.602Z,21.50
2022-12-28T08:34:20.891Z,19.95
2022-12-28T08:36:48.414Z,20.70
2022-12-28T08:39:15.887Z,21.00
2022-12-28T08:41:43.196Z,19.05
2022-12-28T08:44:10.642Z,22.58
2022-12-28T08:46:38.199Z,13.45
2022-12-28T08:49:06.116Z,19.65
2022-12-28T08:51:36.790Z,13.93
2022-12-28T08:54:04.361Z,10.32
2022-12-28T08:56:35.480Z,9.60
2022-12-28T08:59:03.531Z,11.40
2022-12-28T09:01:40.735Z,15.35
2022-12-28T09:04:14.309Z,12.63
2022-12-28T09:06:42.079Z,9.27
2022-12-28T09:09:29.372Z,12.77
2022-12-28T09:11:56.775Z,11.30
2022-12-28T09:14:33.148Z,10.40
2022-12-28T09:17:02.224Z,15.95
2022-12-28T09:19:29.741Z,14.15
2022-12-28T09:22:05.922Z,12.02
2022-12-28T09:24:33.383Z,14.15
2022-12-28T09:27:00.659Z,14.55
2022-12-28T09:29:28.196Z,13.30
2022-12-28T09:31:55.631Z,14.52
2022-12-28T09:34:38.577Z,13.35
2022-12-28T09:37:07.371Z,11.95
2022-12-28T09:39:35.011Z,11.75
2022-12-28T09:42:23.833Z,12.95
2022-12-28T09:44:57.656Z,12.02
2022-12-28T09:47:52.543Z,12.57
2022-12-28T09:50:25.928Z,10.52
2022-12-28T09:53:20.734Z,8.27
2022-12-28T09:56:27.114Z,9.90
2022-12-28T09:58:55.290Z,11.45
2022-12-28T10:01:23.674Z,14.18
2022-12-28T10:03:51.752Z,13.45
2022-12-28T10:06:26.446Z,14.95
2022-12-28T10:08:58.652Z,10.02
2022-12-28T10:14:00.528Z,12.02
2022-12-28T10:16:35.095Z,14.23
2022-12-28T10:19:02.769Z,13.80
2022-12-28T10:21:33.417Z,13.65
2022-12-28T10:24:32.665Z,11.55
2022-12-28T10:26:49.782Z,8.10
2022-12-28T10:29:23.499Z,13.80
2022-12-28T10:32:02.288Z,12.45
2022-12-28T10:34:33.764Z,7.72
2022-12-28T10:37:24.834Z,23.90
2022-12-28T10:40:09.673Z,6.53
2022-12-28T10:42:40.781Z,5.60
2022-12-28T10:45:18.249Z,7.20
2022-12-28T10:47:53.042Z,8.95
2022-12-28T10:50:45.385Z,7.22
2022-12-28T10:56:00.672Z,8.60
2022-12-28T10:58:30.598Z,134.23
2022-12-28T11:01:18.235Z,16.10
2022-12-28T11:03:47.179Z,5.88
2022-12-28T11:06:27.277Z,5.68
2022-12-28T11:09:13.001Z,7.50
2022-12-28T11:11:41.219Z,6.25
2022-12-28T11:14:26.475Z,7.65
2022-12-28T11:16:53.945Z,5.20
2022-12-28T11:19:22.423Z,4.15
2022-12-28T11:21:49.876Z,10.50
2022-12-28T11:24:19.881Z,5.65
2022-12-28T11:26:50.360Z,7.18
2022-12-28T11:29:19.382Z,6.80
2022-12-28T11:32:00.226Z,6.07
2022-12-28T11:34:29.859Z,7.60
2022-12-28T11:36:57.558Z,6.10
2022-12-28T11:39:27.685Z,10.10
2022-12-28T11:44:46.254Z,6.72
2022-12-28T11:47:16.308Z,5.93
2022-12-28T11:49:48.058Z,4.45
2022-12-28T11:52:15.351Z,7.80
2022-12-28T11:54:57.392Z,8.77
2022-12-28T11:57:37.378Z,7.65
2022-12-28T12:00:23.296Z,5.15
2022-12-28T12:02:57.095Z,8.52
2022-12-28T12:05:39.505Z,6.53
2022-12-28T12:08:16.759Z,8.32
2022-12-28T12:10:45.709Z,5.95
2022-12-28T12:13:28.498Z,5.78
2022-12-28T12:16:05.574Z,6.25
2022-12-28T12:19:00.210Z,7.97
2022-12-28T12:21:42.089Z,31.27
2022-12-28T12:24:28.148Z,57.88
2022-12-28T12:27:16.148Z,9.25
2022-12-28T12:30:17.760Z,20.48
2022-12-28T12:33:12.679Z,5.93
2022-12-28T12:35:53.681Z,5.97
2022-12-28T12:38:52.094Z,5.97
2022-12-28T12:41:42.642Z,7.20
2022-12-28T12:44:20.854Z,11.23
2022-12-28T12:47:05.477Z,6.13
2022-12-28T12:49:42.185Z,5.63
2022-12-28T12:52:43.335Z,7.88
2022-12-28T12:55:22.594Z,46.42
2022-12-28T12:58:08.598Z,51.47
2022-12-28T13:00:51.446Z,115.95
2022-12-28T13:03:34.648Z,62.72
2022-12-28T13:06:05.143Z,21.05
2022-12-28T13:08:50.447Z,566.33
2022-12-28T13:11:19.614Z,15.55
2022-12-28T13:13:50.590Z,71.35
2022-12-28T13:16:25.085Z,8.18
2022-12-28T13:19:05.399Z,6.95
2022-12-28T13:21:50.834Z,9.75
2022-12-28T13:24:34.841Z,8.82
2022-12-28T13:27:07.631Z,10.23
2022-12-28T13:29:41.385Z,9.02
2022-12-28T13:32:31.503Z,9.57
2022-12-28T13:35:02.291Z,11.80
2022-12-28T13:37:30.817Z,10.07
2022-12-28T13:40:12.710Z,8.35
2022-12-28T13:42:52.150Z,120.20
2022-12-28T13:45:21.113Z,57.47
2022-12-28T13:47:53.100Z,8.38
2022-12-28T13:53:03.379Z,16.40
2022-12-28T13:55:42.715Z,6.03
2022-12-28T13:58:31.951Z,7.40
2022-12-28T14:01:03.154Z,5.53
2022-12-28T14:03:37.661Z,9.50
2022-12-28T14:06:08.207Z,6.28
2022-12-28T14:08:38.794Z,11.18
2022-12-28T14:11:07.289Z,19.08
2022-12-28T14:13:36.095Z,7.55
2022-12-28T14:16:05.114Z,8.88
2022-12-28T14:18:33.996Z,10.55
2022-12-28T14:21:02.998Z,8.27
2022-12-28T14:23:35.839Z,6.45
2022-12-28T14:26:22.349Z,8.27
2022-12-28T14:28:54.772Z,6.43
2022-12-28T14:31:28.453Z,6.22
2022-12-28T14:33:57.347Z,7.10
2022-12-28T14:36:41.950Z,8.75
2022-12-28T14:39:24.826Z,7.78
2022-12-28T14:41:53.038Z,8.85
2022-12-28T14:44:50.956Z,10.05
2022-12-28T14:47:33.891Z,10.45
2022-12-28T14:50:04.765Z,16.13
2022-12-28T14:52:35.973Z,9.88
2022-12-28T14:55:31.233Z,12.00
2022-12-28T14:58:05.683Z,13.48
2022-12-28T15:00:36.768Z,28.85
2022-12-28T15:03:20.210Z,10.35
2022-12-28T15:05:52.858Z,11.38
2022-12-28T15:08:21.066Z,9.63
2022-12-28T15:10:58.109Z,14.18
2022-12-28T15:13:26.497Z,9.52
2022-12-28T15:16:04.426Z,14.98
2022-12-28T15:18:33.457Z,11.85
2022-12-28T15:21:05.345Z,12.13
2022-12-28T15:23:32.886Z,12.48
2022-12-28T15:26:10.083Z,17.98
2022-12-28T15:28:37.780Z,15.55
2022-12-28T15:31:08.909Z,14.02
2022-12-28T15:33:36.331Z,13.27
2022-12-28T15:36:18.561Z,12.32
2022-12-28T15:38:47.304Z,14.57
2022-12-28T15:41:34.593Z,12.57
2022-12-28T15:44:02.201Z,12.68
2022-12-28T15:46:29.607Z,17.08
2022-12-28T15:48:57.017Z,15.30
2022-12-28T15:51:24.559Z,12.23
2022-12-28T15:53:51.897Z,14.35
2022-12-28T15:56:33.704Z,13.60
2022-12-28T15:59:02.797Z,13.45
2022-12-28T16:01:31.754Z,18.77
2022-12-28T16:04:01.259Z,194.25
2022-12-28T16:06:31.146Z,114.00
2022-12-28T16:09:00.473Z,80.80
2022-12-28T16:11:29.956Z,24.98
2022-12-28T16:14:00.742Z,61.08
2022-12-28T16:16:31.040Z,28.83
2022-12-28T16:18:58.999Z,21.80
2022-12-28T16:21:27.125Z,18.40
2022-12-28T16:23:54.921Z,25.02
2022-12-28T16:26:23.048Z,20.55
2022-12-28T16:28:50.538Z,17.45
2022-12-28T16:31:29.992Z,22.80
2022-12-28T16:34:02.297Z,18.77
2022-12-28T16:38:57.455Z,16.40
2022-12-28T16:41:29.967Z,17.85
2022-12-28T16:44:06.999Z,22.33
2022-12-28T16:46:34.454Z,18.42
2022-12-28T16:49:02.573Z,16.80
2022-12-28T16:51:31.785Z,20.70
2022-12-28T16:53:59.540Z,22.48
2022-12-28T16:56:27.007Z,20.80
2022-12-28T16:58:58.507Z,20.73
2022-12-28T17:01:26.218Z,20.50
2022-12-28T17:03:56.299Z,22.65
2022-12-28T17:06:27.707Z,28.58
2022-12-28T17:08:55.175Z,30.55
2022-12-28T17:11:22.586Z,25.70
2022-12-28T17:13:50.024Z,24.73
2022-12-28T17:16:17.475Z,24.40
2022-12-28T17:18:44.920Z,30.67
2022-12-28T17:21:12.344Z,42.92
2022-12-28T17:23:40.576Z,31.88
2022-12-28T17:26:08.119Z,45.55
2022-12-28T17:28:36.023Z,34.13
2022-12-28T17:31:11.049Z,30.50
2022-12-28T17:33:40.074Z,22.60
2022-12-28T17:36:08.731Z,85.82
2022-12-28T17:38:36.172Z,151.27
2022-12-28T17:41:16.370Z,235.95
2022-12-28T17:43:55.490Z,102.90
2022-12-28T17:46:26.196Z,196.75
2022-12-28T17:48:54.762Z,74.72
2022-12-28T17:51:24.404Z,38.83
2022-12-28T17:53:53.999Z,71.57
2022-12-28T17:56:21.604Z,66.68
2022-12-28T17:58:49.793Z,36.97
2022-12-28T18:01:17.270Z,37.17
2022-12-28T18:03:44.638Z,46.38
2022-12-28T18:06:12.130Z,36.17
2022-12-28T18:08:39.539Z,31.65
2022-12-28T18:11:08.967Z,34.55
2022-12-28T18:13:36.313Z,32.05
2022-12-28T18:16:05.028Z,35.08
2022-12-28T18:18:32.747Z,42.00
2022-12-28T18:21:02.476Z,52.08
2022-12-28T18:23:30.420Z,41.90
2022-12-28T18:26:08.902Z,37.60
2022-12-28T18:28:37.020Z,35.45
2022-12-28T18:31:05.689Z,33.22
2022-12-28T18:33:37.184Z,31.38
2022-12-28T18:36:11.317Z,33.72
2022-12-28T18:38:47.231Z,31.90
2022-12-28T18:41:16.960Z,30.75
2022-12-28T18:43:44.542Z,34.53
2022-12-28T18:46:12.083Z,26.90
2022-12-28T18:48:41.277Z,29.42
2022-12-28T18:51:14.620Z,32.75
2022-12-28T18:53:42.360Z,36.55
2022-12-28T18:56:14.581Z,30.70
2022-12-28T19:04:16.578Z,55.50
2022-12-28T19:06:44.625Z,45.45
2022-12-28T19:09:12.808Z,130.55
2022-12-28T19:11:41.358Z,80.93
2022-12-28T19:14:12.311Z,240.23
2022-12-28T19:16:41.863Z,74.63
2022-12-28T19:19:09.220Z,46.25
2022-12-28T19:21:39.520Z,76.90
2022-12-28T19:24:16.099Z,179.25
2022-12-28T19:26:44.914Z,191.65
2022-12-28T19:29:13.773Z,164.60
2022-12-28T19:31:41.326Z,240.95
2022-12-28T19:34:08.993Z,76.15
2022-12-28T19:36:36.413Z,65.32
2022-12-28T19:39:03.844Z,108.90
2022-12-28T19:41:31.365Z,211.77
2022-12-28T19:43:58.760Z,90.95
2022-12-28T19:46:31.752Z,153.57
2022-12-28T19:49:01.654Z,133.02
2022-12-28T19:51:31.687Z,113.00
2022-12-28T19:54:00.269Z,103.22
2022-12-28T19:56:28.831Z,84.43
2022-12-28T19:59:03.072Z,346.13
2022-12-28T20:01:33.183Z,211.95
2022-12-28T20:04:00.820Z,131.25
2022-12-28T20:06:29.803Z,137.23
2022-12-28T20:09:01.440Z,85.65
2022-12-28T20:11:29.866Z,85.07
2022-12-28T20:14:00.096Z,77.10
2022-12-28T20:16:29.547Z,113.60
2022-12-28T20:19:00.110Z,124.50
2022-12-28T20:21:27.917Z,193.60
2022-12-28T20:23:55.337Z,194.18
2022-12-28T20:26:28.560Z,123.25
2022-12-28T20:28:57.901Z,60.97
2022-12-28T20:31:25.931Z,81.20
2022-12-28T20:33:53.911Z,256.88
2022-12-28T20:36:28.959Z,63.95
2022-12-28T20:38:57.191Z,59.75
2022-12-28T20:41:47.993Z,88.03
2022-12-28T20:44:20.453Z,102.45
2022-12-28T20:46:47.986Z,144.75
2022-12-28T20:49:15.372Z,128.75
2022-12-28T20:51:43.412Z,60.78
2022-12-28T20:54:11.168Z,45.17
2022-12-28T20:56:39.037Z,107.75
2022-12-28T20:59:07.271Z,118.35
2022-12-28T21:01:36.652Z,184.20
2022-12-28T21:04:05.012Z,123.57
2022-12-28T21:06:32.621Z,83.53
2022-12-28T21:09:00.334Z,212.95
2022-12-28T21:11:28.984Z,159.02
2022-12-28T21:13:56.352Z,127.10
2022-12-28T21:16:23.697Z,59.00
2022-12-28T21:18:51.814Z,60.30
2022-12-28T21:21:24.236Z,109.35
2022-12-28T21:26:21.870Z,54.78
2022-12-28T21:28:49.961Z,63.78
2022-12-28T21:31:20.430Z,64.28
2022-12-28T21:33:47.884Z,486.63
2022-12-28T21:36:17.965Z,609.05
2022-12-28T21:38:47.627Z,137.93
2022-12-28T21:41:43.169Z,165.32
2022-12-28T21:44:12.965Z,454.38
2022-12-28T21:46:40.894Z,388.85
2022-12-28T21:49:08.865Z,315.10
2022-12-28T21:51:37.583Z,157.35
2022-12-28T21:54:06.251Z,64.32
2022-12-28T21:56:35.031Z,42.38
2022-12-28T21:59:02.590Z,118.15
2022-12-28T22:01:48.359Z,247.23
2022-12-28T22:04:37.012Z,87.50
2022-12-28T22:07:06.144Z,47.45
2022-12-28T22:09:56.079Z,45.95
2022-12-28T22:12:39.921Z,63.72
2022-12-28T22:15:27.898Z,62.78
2022-12-28T22:17:59.944Z,66.05
2022-12-28T22:20:28.875Z,56.88
2022-12-28T22:23:01.469Z,82.43
2022-12-28T22:25:30.152Z,246.98
2022-12-28T22:28:00.602Z,105.05
2022-12-28T22:30:29.077Z,84.22
2022-12-28T22:32:56.535Z,236.55
2022-12-28T22:35:24.188Z,92.13
2022-12-28T22:37:51.937Z,53.53
2022-12-28T22:40:19.840Z,98.40
2022-12-28T22:42:49.101Z,99.00
2022-12-28T22:45:19.333Z,128.93
2022-12-28T22:47:47.334Z,127.85
2022-12-28T22:50:16.789Z,110.05
2022-12-28T22:52:44.624Z,41.28
2022-12-28T22:55:12.222Z,29.05
2022-12-28T22:57:39.599Z,31.70
2022-12-28T23:00:11.388Z,23.55
2022-12-28T23:02:39.283Z,24.70
2022-12-28T23:05:08.281Z,26.20
2022-12-28T23:07:36.486Z,26.80
2022-12-28T23:10:04.650Z,26.50
2022-12-28T23:12:32.092Z,28.50
2022-12-28T23:15:19.997Z,30.65
2022-12-28T23:18:10.633Z,32.22
2022-12-28T23:20:57.763Z,30.30
2022-12-28T23:23:43.426Z,27.45
2022-12-28T23:26:29.931Z,26.67
2022-12-28T23:28:57.402Z,23.00
2022-12-28T23:31:24.796Z,23.42
2022-12-28T23:33:52.891Z,23.23
2022-12-28T23:36:21.623Z,20.05
2022-12-28T23:38:50.899Z,21.73
2022-12-28T23:41:36.626Z,22.33
2022-12-28T23:44:03.969Z,25.17
2022-12-28T23:46:31.411Z,22.92
2022-12-28T23:49:00.866Z,22.67
2022-12-28T23:51:28.170Z,20.65
2022-12-28T23:53:55.613Z,23.48
2022-12-28T23:56:23.846Z,22.58
2022-12-28T23:58:56.543Z,21.05
